Share

Caslav, Czech Republic

IPARDUBI9 Elev 732 ft | 50.09 °N, 15.75 °E | Change Station

Current weather conditions updated 3 minutes ago

Clear
Clear
43.0 °F
Feels Like 43 °F
N
2.2
Wind Variable Wind from South
Gusts 3.1 mph
Sunrise 5:54 AM
Sunset 8:01 PM
Moon Waning Gibbous

Today is forecast to be nearly the same temperature as yesterday. Chance of afternoon showers.

Pressure 29.74 in
Visibility -9999.0 miles
Clouds
Windchill 43 °F
Dew Point 40 °F
Humidity 88%
Rainfall 0.00 in
Snow Depth Not available.
UV Not available.
Pollen Not available.
Air Quality Not available.
Flu Activity Not available.
METAR LKPR 210130Z 10004KT CAVOK 07/05 Q1007 NOSIG

More Conditions Fewer Conditions

Pressure 29.74 in
Visibility -9999.0 miles
Clouds
Windchill 43 °F
Dew Point 40 °F
Humidity 88%
Rainfall 0.00 in
Snow Depth Not available.
UV Not available.
Pollen Not available.
Air Quality Not available.
Flu Activity Not available.
METAR LKPR 210130Z 10004KT CAVOK 07/05 Q1007 NOSIG

More Conditions Fewer Conditions

10-Day Weather Forecast

Almanac

Astronomy

Apr. 21, 2014 Rise Set
Actual Time 5:54 AM CEST 8:01 PM CEST
Civil Twilight 5:19 AM CEST 8:36 PM CEST
Nautical Twilight 4:35 AM CEST 9:19 PM CEST
Astronomical Twilight 3:46 AM CEST 10:09 PM CEST
Moon 1:26 AM CEST 10:52 AM CEST
Length of Visible Light 15h 16m
Length of Day
14h 07m
Tomorrow will be 3m 31s longer.
Waning Gibbous, 64% of the Moon is Illuminated
Apr 20
Waning Gibbous
Apr 22
Last Quarter
Apr 29
New
May 6
First Quarter
May 14
Full

Yesterday's Extremes

Country Highs Country Lows

Community

  • Easter Dance
    Easter Dance
  • spring skiing mount Baker WA
    spring skiing mount Baker WA
  • Morning Sun
    Morning Sun
  • Happy Easter
    Happy Easter
  • after rain
    after rain

WunderPhotos

Upload Photos

1,703,505 photos uploaded!

WunderBlogs® & News

Nearby

Snow Depth

Not available.

Coastal Water Temperatures

Place Temperature
No Stations Reporting

Earthquake Activity

City Distance Mag. Time & Date
No recent earthquake activity has been reported nearby.
Minimum magnitude displayed is 2.5.

Nearby Weather Stations

Station Location Temp. Windchill Dew Point Humidity Wind Precip. Elev Updated Type
Steblova 43.0 °F 43 °F 40 °F 88% South  at  2.2 mph 0.00 in / hr 732 ft 3:32 AM CEST Normal
Srch 44.2 °F 42 °F 43 °F 95% ENE  at  3.9 mph 0.00 in / hr 778 ft 3:35 AM CEST Normal
Lhota Pod Libcany 42.4 °F 40 °F 33 °F 69% NE  at  4.0 mph 0.00 in / hr 784 ft 3:35 AM CEST Rapid Fire

Show More Stations Show Fewer Stations

What do you think?

We're not finished. Please let us know what you like, what you don't like, and what you are still missing.